createdAt,value
2018-12-12T00:03:59.427Z,1.9
2018-12-12T00:09:01.537Z,1.8
2018-12-12T00:14:03.931Z,1.9
2018-12-12T00:19:06.195Z,1.9
2018-12-12T00:24:08.575Z,1.8
2018-12-12T00:29:10.799Z,1.8
2018-12-12T00:34:13.153Z,1.7
2018-12-12T00:39:15.315Z,1.6
2018-12-12T00:44:17.714Z,1.5
2018-12-12T00:49:20.003Z,1.5
2018-12-12T00:54:22.229Z,1.4
2018-12-12T00:59:24.568Z,1.3
2018-12-12T01:04:26.951Z,1.1
2018-12-12T01:09:29.133Z,1
2018-12-12T01:14:31.403Z,0.9
2018-12-12T01:19:33.903Z,0.9
2018-12-12T01:24:35.998Z,0.9
2018-12-12T01:29:38.496Z,0.9
2018-12-12T01:34:40.744Z,1
2018-12-12T01:39:44.902Z,0.9
2018-12-12T01:44:45.261Z,1
2018-12-12T01:49:47.564Z,0.9
2018-12-12T01:54:49.862Z,0.9
2018-12-12T01:59:52.109Z,0.7
2018-12-12T02:04:54.573Z,0.7
2018-12-12T02:09:56.686Z,0.7
2018-12-12T02:14:59.021Z,0.8
2018-12-12T02:20:01.215Z,0.7
2018-12-12T02:25:03.601Z,0.8
2018-12-12T02:30:05.813Z,0.7
2018-12-12T02:35:08.089Z,0.6
2018-12-12T02:40:10.506Z,0.6
2018-12-12T02:45:12.704Z,0.6
2018-12-12T02:50:14.967Z,0.5
2018-12-12T02:55:17.518Z,0.5
2018-12-12T03:00:19.666Z,0.6
2018-12-12T03:05:21.872Z,0.5
2018-12-12T03:10:24.318Z,0.5
2018-12-12T03:15:28.273Z,0.3
2018-12-12T03:20:28.770Z,0.3
2018-12-12T03:25:31.085Z,0.3
2018-12-12T03:30:33.437Z,0.1
2018-12-12T03:35:35.618Z,0
2018-12-12T03:40:38.010Z,-0.1
2018-12-12T03:45:40.421Z,-0.1
2018-12-12T03:50:42.636Z,-0.1
2018-12-12T03:55:45.040Z,0
2018-12-12T04:00:47.130Z,0
2018-12-12T04:05:49.749Z,-0.2
2018-12-12T04:10:51.747Z,-0.2
2018-12-12T04:15:54.064Z,-0.3
2018-12-12T04:20:56.381Z,-0.3
2018-12-12T04:25:58.577Z,-0.2
2018-12-12T04:31:00.865Z,-0.3
2018-12-12T04:36:03.278Z,-0.4
2018-12-12T04:41:05.517Z,-0.5
2018-12-12T04:46:07.718Z,-0.5
2018-12-12T04:51:10.067Z,-0.3
2018-12-12T04:56:12.463Z,-0.3
2018-12-12T05:01:14.607Z,-0.4
2018-12-12T05:06:17.061Z,-0.5
2018-12-12T05:11:19.344Z,-0.6
2018-12-12T05:16:21.554Z,-0.7
2018-12-12T05:21:23.772Z,-0.8
2018-12-12T05:26:26.082Z,-0.9
2018-12-12T05:31:28.392Z,-0.9
2018-12-12T05:36:30.769Z,-0.9
2018-12-12T05:41:33.178Z,-0.9
2018-12-12T05:46:41.622Z,-1
2018-12-12T05:51:37.619Z,-1
2018-12-12T05:56:40.019Z,-1
2018-12-12T06:01:42.217Z,-1.1
2018-12-12T06:06:44.585Z,-1.2
2018-12-12T06:11:46.768Z,-1.2
2018-12-12T06:16:49.022Z,-1.2
2018-12-12T06:21:51.385Z,-1.2
2018-12-12T06:26:53.647Z,-1.2
2018-12-12T06:31:55.995Z,-1.2
2018-12-12T06:36:58.375Z,-1.2
2018-12-12T06:42:00.598Z,-1.2
2018-12-12T06:47:02.806Z,-1.2
2018-12-12T06:52:05.168Z,-1.2
2018-12-12T06:57:07.398Z,-1.2
2018-12-12T07:02:11.103Z,-1.2
2018-12-12T07:07:12.081Z,-1.3
2018-12-12T07:12:14.287Z,-1.3
2018-12-12T07:17:16.617Z,-1.3
2018-12-12T07:22:19.048Z,-1.3
2018-12-12T07:27:22.616Z,-1.3
2018-12-12T07:32:26.173Z,-1.3
2018-12-12T07:37:25.957Z,-1.3
2018-12-12T07:42:28.108Z,-1.2
2018-12-12T07:47:30.379Z,-1.2
2018-12-12T07:52:32.693Z,-1.2
2018-12-12T07:57:34.881Z,-1.1
2018-12-12T08:02:37.295Z,-1.1
2018-12-12T08:07:39.644Z,-1.1
2018-12-12T08:17:44.280Z,-0.9
2018-12-12T08:22:46.394Z,-0.7
2018-12-12T08:27:48.760Z,-0.5
2018-12-12T08:32:51.080Z,-0.4
2018-12-12T08:37:53.363Z,-0.3
2018-12-12T08:42:55.591Z,-0.3
2018-12-12T08:47:57.938Z,-0.2
2018-12-12T08:53:00.282Z,-0.1
2018-12-12T08:58:02.461Z,0
2018-12-12T09:03:04.743Z,0
2018-12-12T09:08:07.090Z,0.1
2018-12-12T09:13:09.372Z,0.1
2018-12-12T09:18:13.094Z,0.2
2018-12-12T09:23:13.938Z,0.2
2018-12-12T09:28:16.264Z,0.4
2018-12-12T09:33:24.430Z,0.5
2018-12-12T09:38:20.779Z,0.6
2018-12-12T09:43:23.194Z,0.7
2018-12-12T09:48:25.467Z,0.8
2018-12-12T09:53:27.800Z,0.9
2018-12-12T09:58:30.216Z,1.1
2018-12-12T10:03:32.256Z,1.2
2018-12-12T10:08:34.661Z,1.5
2018-12-12T10:13:36.939Z,1.7
2018-12-12T10:18:40.983Z,1.9
2018-12-12T10:23:41.692Z,2
2018-12-12T10:28:43.836Z,2.1
2018-12-12T10:33:46.172Z,2.1
2018-12-12T10:38:48.478Z,2.1
2018-12-12T10:43:50.736Z,2.2
2018-12-12T10:48:53.059Z,2.3
2018-12-12T10:53:56.991Z,2.4
2018-12-12T10:58:57.489Z,2.7
2018-12-12T11:03:59.902Z,2.9
2018-12-12T11:09:02.169Z,2.9
2018-12-12T11:14:04.452Z,3
2018-12-12T11:19:06.734Z,3.1
2018-12-12T11:24:09.102Z,3.2
2018-12-12T11:29:11.333Z,3.5
2018-12-12T11:34:13.509Z,3.9
2018-12-12T11:39:15.901Z,4.8
2018-12-12T11:44:18.239Z,5.8
2018-12-12T11:49:20.538Z,6.3
2018-12-12T11:54:22.777Z,6.1
2018-12-12T11:59:25.123Z,5.6
2018-12-12T12:04:27.368Z,4.9
2018-12-12T12:09:29.691Z,4.4
2018-12-12T12:14:31.908Z,4.2
2018-12-12T12:19:34.211Z,4.1
2018-12-12T12:24:37.966Z,4
2018-12-12T12:29:39.787Z,4
2018-12-12T12:34:41.223Z,3.9
2018-12-12T12:39:43.397Z,3.9
2018-12-12T12:44:45.717Z,3.8
2018-12-12T12:49:48.003Z,3.8
2018-12-12T12:54:50.391Z,3.7
2018-12-12T12:59:52.613Z,3.6
2018-12-12T13:04:54.789Z,3.6
2018-12-12T13:09:57.129Z,3.5
2018-12-12T13:14:59.514Z,3.5
2018-12-12T13:20:01.710Z,3.5
2018-12-12T13:25:04.077Z,3.4
2018-12-12T13:30:06.496Z,3.4
2018-12-12T13:35:08.696Z,3.4
2018-12-12T13:40:10.980Z,3.4
2018-12-12T13:45:13.301Z,3.4
2018-12-12T13:50:15.683Z,3.4
2018-12-12T13:55:17.789Z,3.4
2018-12-12T14:00:20.297Z,3.5
2018-12-12T14:05:22.487Z,3.4
2018-12-12T14:10:25.879Z,3.4
2018-12-12T14:15:26.910Z,3.4
2018-12-12T14:20:29.308Z,3.4
2018-12-12T14:25:31.617Z,3.4
2018-12-12T14:30:33.843Z,3.4
2018-12-12T14:35:36.082Z,3.4
2018-12-12T14:40:38.417Z,3.4
2018-12-12T14:45:40.802Z,3.2
2018-12-12T14:50:43.035Z,3.2
2018-12-12T14:55:45.307Z,3.1
2018-12-12T15:00:47.648Z,3
2018-12-12T15:05:49.854Z,2.8
2018-12-12T15:10:52.286Z,2.8
2018-12-12T15:15:54.573Z,2.7
2018-12-12T15:20:56.871Z,2.6
2018-12-12T15:25:59.086Z,2.5
2018-12-12T15:31:01.358Z,2.4
2018-12-12T15:36:04.753Z,2.3
2018-12-12T15:41:05.971Z,2.2
2018-12-12T15:46:09.313Z,2.1
2018-12-12T15:51:12.321Z,2.1
2018-12-12T15:56:12.814Z,2
2018-12-12T16:01:15.177Z,2
2018-12-12T16:06:17.530Z,2.1
2018-12-12T16:11:19.715Z,2.2
2018-12-12T16:16:21.987Z,2.2
2018-12-12T16:21:24.234Z,2.1
2018-12-12T16:26:26.538Z,2
2018-12-12T16:31:29.108Z,1.9
2018-12-12T16:36:31.227Z,1.7
2018-12-12T16:41:33.480Z,1.6
2018-12-12T16:46:35.734Z,1.6
2018-12-12T16:51:38.120Z,1.5
2018-12-12T16:56:41.744Z,1.4
2018-12-12T17:01:42.882Z,1.4
2018-12-12T17:06:45.065Z,1.3
2018-12-12T17:11:48.806Z,1.3
2018-12-12T17:16:49.558Z,1.2
2018-12-12T17:21:51.934Z,1
2018-12-12T17:26:54.257Z,1
2018-12-12T17:31:58.306Z,0.9
2018-12-12T17:36:58.750Z,0.8
2018-12-12T17:42:00.965Z,0.7
2018-12-12T17:47:03.794Z,0.7
2018-12-12T17:52:07.164Z,0.6
2018-12-12T17:57:07.916Z,0.5
2018-12-12T18:02:10.204Z,0.4
2018-12-12T18:07:12.480Z,0.3
2018-12-12T18:12:14.924Z,0.2
2018-12-12T18:17:17.162Z,0.1
2018-12-12T18:22:19.307Z,0.1
2018-12-12T18:27:21.738Z,0
2018-12-12T18:32:24.059Z,0.1
2018-12-12T18:37:26.221Z,0.2
2018-12-12T18:42:28.501Z,0.2
2018-12-12T18:47:30.904Z,0.1
2018-12-12T18:52:34.223Z,0.1
2018-12-12T18:57:35.584Z,0.1
2018-12-12T19:02:37.749Z,0
2018-12-12T19:07:40.058Z,0
2018-12-12T19:12:42.276Z,0
2018-12-12T19:17:44.525Z,0
2018-12-12T19:22:46.900Z,0
2018-12-12T19:27:49.160Z,0
2018-12-12T19:32:51.585Z,0
2018-12-12T19:37:53.782Z,0
2018-12-12T19:42:56.052Z,0
2018-12-12T19:47:58.517Z,-0.1
2018-12-12T19:53:00.705Z,-0.1
2018-12-12T19:58:02.922Z,-0.1
2018-12-12T20:03:05.282Z,-0.2
2018-12-12T20:08:07.578Z,-0.1
2018-12-12T20:13:09.847Z,-0.1
2018-12-12T20:18:12.239Z,0
2018-12-12T20:23:14.404Z,0
2018-12-12T20:28:18.104Z,0
2018-12-12T20:33:20.187Z,0
2018-12-12T20:38:21.387Z,0
2018-12-12T20:43:23.517Z,0
2018-12-12T20:48:25.920Z,0
2018-12-12T20:53:28.413Z,0
2018-12-12T20:58:30.419Z,0.1
2018-12-12T21:03:32.777Z,0.1
2018-12-12T21:08:35.095Z,0.1
2018-12-12T21:13:37.383Z,0.1
2018-12-12T21:18:39.714Z,0.1
2018-12-12T21:23:42.057Z,0.1
2018-12-12T21:28:44.180Z,0.1
2018-12-12T21:33:46.558Z,0.1
2018-12-12T21:38:48.750Z,0.1
2018-12-12T21:43:51.126Z,0
2018-12-12T21:48:53.379Z,0
2018-12-12T21:53:55.794Z,0
2018-12-12T21:58:58.079Z,0
2018-12-12T22:04:00.307Z,0
2018-12-12T22:09:04.092Z,0.1
2018-12-12T22:14:04.953Z,0
2018-12-12T22:19:07.206Z,-0.1
2018-12-12T22:24:09.466Z,-0.1
2018-12-12T22:29:11.860Z,0
2018-12-12T22:34:14.045Z,0
2018-12-12T22:39:16.272Z,0
2018-12-12T22:44:20.171Z,0
2018-12-12T22:49:20.976Z,-0.1
2018-12-12T22:54:23.336Z,-0.1
2018-12-12T22:59:25.639Z,-0.1
2018-12-12T23:04:27.756Z,-0.1
2018-12-12T23:09:30.130Z,-0.1
2018-12-12T23:14:32.447Z,-0.2
2018-12-12T23:19:34.723Z,-0.2
2018-12-12T23:24:36.953Z,-0.2
2018-12-12T23:29:39.348Z,-0.2
2018-12-12T23:34:41.608Z,-0.2
2018-12-12T23:39:43.880Z,-0.2
2018-12-12T23:44:46.133Z,-0.2
2018-12-12T23:49:48.567Z,-0.3
2018-12-12T23:54:50.808Z,-0.2
2018-12-12T23:59:53.061Z,-0.3
